createdAt,value
2018-11-22T12:16:07.481Z,6.10
2018-11-22T12:19:10.422Z,6.10
2018-11-22T12:22:13.407Z,5.80
2018-11-22T12:25:18.202Z,6.30
2018-11-22T12:28:21.130Z,5.90
2018-11-22T12:31:24.096Z,6.30
2018-11-22T12:34:33.441Z,6.10
2018-11-22T12:37:43.372Z,6.10
2018-11-22T12:40:43.489Z,6.30
2018-11-22T12:43:50.820Z,5.90
2018-11-22T12:46:54.915Z,6.00
2018-11-22T12:50:00.304Z,6.10
2018-11-22T12:53:04.905Z,6.20
2018-11-22T12:56:08.940Z,6.40
2018-11-22T12:59:13.050Z,6.10
2018-11-22T13:02:18.353Z,6.30
2018-11-22T13:05:20.758Z,5.90
2018-11-22T13:08:24.533Z,6.20
2018-11-22T13:11:28.305Z,6.40
2018-11-22T13:14:31.273Z,6.30
2018-11-22T13:17:34.220Z,6.10
2018-11-22T13:20:37.195Z,6.30
2018-11-22T13:23:40.094Z,6.30
2018-11-22T13:26:42.986Z,6.30
2018-11-22T13:29:45.967Z,6.40
2018-11-22T13:32:49.610Z,6.20
2018-11-22T13:35:52.593Z,6.40
2018-11-22T13:38:55.530Z,6.50
2018-11-22T13:41:58.448Z,6.30
2018-11-22T13:45:05.904Z,6.20
2018-11-22T13:48:08.834Z,5.90
2018-11-22T13:51:11.777Z,6.30
2018-11-22T13:54:14.833Z,6.30
2018-11-22T13:57:17.775Z,6.40
2018-11-22T14:00:22.377Z,6.50
2018-11-22T14:03:25.249Z,6.20
2018-11-22T14:06:28.275Z,5.90
2018-11-22T14:09:33.512Z,6.10
2018-11-22T14:12:36.568Z,6.20
2018-11-22T14:15:40.215Z,5.80
2018-11-22T14:18:43.634Z,6.00
2018-11-22T14:21:47.125Z,5.70
2018-11-22T14:24:50.373Z,6.00
2018-11-22T14:27:53.793Z,6.00
2018-11-22T14:30:56.866Z,5.70
2018-11-22T14:33:59.998Z,5.90
2018-11-22T14:37:04.022Z,6.20
2018-11-22T14:40:11.361Z,5.80
2018-11-22T14:43:14.532Z,5.70
2018-11-22T14:46:18.209Z,6.10
2018-11-22T14:49:21.629Z,6.00
2018-11-22T14:52:24.868Z,5.80
2018-11-22T14:55:28.765Z,6.10
2018-11-22T14:58:31.851Z,6.10
2018-11-22T15:01:34.767Z,5.90
2018-11-22T15:04:38.144Z,5.60
2018-11-22T15:07:42.111Z,6.00
2018-11-22T15:10:45.397Z,6.20
2018-11-22T15:13:48.718Z,6.20
2018-11-22T15:16:53.465Z,6.00
2018-11-22T15:19:57.056Z,6.10
2018-11-22T15:23:00.831Z,6.30
2018-11-22T15:26:04.753Z,6.80
2018-11-22T15:29:07.849Z,6.30
2018-11-22T15:32:11.181Z,6.30
2018-11-22T15:35:15.690Z,6.10
2018-11-22T15:38:18.886Z,6.10
2018-11-22T15:41:22.962Z,5.80
2018-11-22T15:44:26.492Z,5.80
2018-11-22T15:47:29.699Z,6.00
2018-11-22T15:50:33.489Z,5.30
2018-11-22T15:53:36.958Z,5.70
2018-11-22T15:56:40.575Z,5.60
2018-11-22T15:59:43.770Z,5.70
2018-11-22T16:02:47.519Z,5.70
2018-11-22T16:05:50.917Z,5.70
2018-11-22T16:08:54.294Z,5.40
2018-11-22T16:11:58.881Z,4.90
2018-11-22T16:15:01.896Z,5.60
2018-11-22T16:18:05.020Z,5.60
2018-11-22T16:21:08.026Z,4.80
2018-11-22T16:24:10.942Z,4.80
2018-11-22T16:27:14.076Z,4.80
2018-11-22T16:30:20.530Z,4.80
2018-11-22T16:33:23.423Z,5.00
2018-11-22T16:36:26.395Z,5.10
2018-11-22T16:39:29.338Z,5.10
2018-11-22T16:42:32.239Z,4.70
2018-11-22T16:45:36.299Z,4.60
2018-11-22T16:48:39.235Z,4.70
2018-11-22T16:51:42.185Z,5.40
2018-11-22T16:54:45.224Z,5.20
2018-11-22T16:57:49.186Z,5.10
2018-11-22T17:00:52.174Z,5.40
2018-11-22T17:03:55.081Z,4.90
2018-11-22T17:06:58.002Z,5.10
2018-11-22T17:10:00.937Z,5.10
2018-11-22T17:13:04.523Z,5.50
2018-11-22T17:16:07.486Z,5.20
2018-11-22T17:19:10.466Z,5.40
2018-11-22T17:22:13.390Z,4.90
2018-11-22T17:25:17.729Z,5.30
2018-11-22T17:28:20.717Z,5.00
2018-11-22T17:31:23.615Z,5.20
2018-11-22T17:34:26.559Z,4.70
2018-11-22T17:37:29.480Z,4.70
2018-11-22T17:40:34.002Z,5.30
2018-11-22T17:43:36.954Z,5.00
2018-11-22T17:46:39.921Z,4.90
2018-11-22T17:49:42.924Z,5.40
2018-11-22T17:52:45.870Z,5.10
2018-11-22T17:55:48.827Z,4.60
2018-11-22T17:58:51.794Z,5.20
2018-11-22T18:01:54.740Z,4.60
2018-11-22T18:04:57.645Z,4.90
2018-11-22T18:08:00.669Z,4.40
2018-11-22T18:11:03.914Z,4.60
2018-11-22T18:14:06.937Z,4.70
2018-11-22T18:17:09.880Z,4.70
2018-11-22T18:20:17.887Z,4.90
2018-11-22T18:23:20.810Z,4.30
2018-11-22T18:26:23.735Z,4.40
2018-11-22T18:29:26.675Z,4.60
2018-11-22T18:32:29.613Z,4.70
2018-11-22T18:35:32.598Z,4.50
2018-11-22T18:38:35.520Z,4.50
2018-11-22T18:41:38.493Z,4.70
2018-11-22T18:44:41.426Z,4.70
2018-11-22T18:47:45.354Z,4.70
2018-11-22T18:50:48.331Z,3.80
2018-11-22T18:53:51.219Z,4.50
2018-11-22T18:56:54.189Z,4.40
2018-11-22T18:59:57.138Z,4.40
2018-11-22T19:03:02.494Z,4.60
2018-11-22T19:06:05.481Z,4.40
2018-11-22T19:09:08.968Z,4.20
2018-11-22T19:12:11.925Z,4.20
2018-11-22T19:15:16.147Z,3.90
2018-11-22T19:18:19.101Z,3.90
2018-11-22T19:21:22.081Z,4.10
2018-11-22T19:24:25.007Z,4.30
2018-11-22T19:27:27.957Z,4.20
2018-11-22T19:30:37.074Z,3.70
2018-11-22T19:33:35.178Z,3.90
2018-11-22T19:36:38.163Z,3.80
2018-11-22T19:39:41.125Z,3.80
2018-11-22T19:42:45.191Z,3.90
2018-11-22T19:45:48.926Z,3.10
2018-11-22T19:48:51.874Z,3.10
2018-11-22T19:51:54.779Z,3.00
2018-11-22T19:54:57.677Z,3.60
2018-11-22T19:58:01.897Z,3.80
2018-11-22T20:01:07.725Z,3.90
2018-11-22T20:04:08.098Z,3.50
2018-11-22T20:07:11.055Z,3.80
2018-11-22T20:10:20.914Z,3.60
2018-11-22T20:13:23.933Z,3.00
2018-11-22T20:16:26.878Z,3.00
2018-11-22T20:19:29.810Z,3.70
2018-11-22T20:22:32.706Z,3.50
2018-11-22T20:25:35.650Z,3.60
2018-11-22T20:28:38.561Z,3.40
2018-11-22T20:31:41.517Z,3.20
2018-11-22T20:34:44.481Z,2.90
2018-11-22T20:37:48.202Z,3.00
2018-11-22T20:40:57.265Z,3.50
2018-11-22T20:43:54.068Z,3.20
2018-11-22T20:46:58.406Z,3.40
2018-11-22T20:50:01.831Z,3.50
2018-11-22T20:53:05.970Z,3.10
2018-11-22T20:56:10.354Z,3.40
2018-11-22T20:59:13.473Z,3.50
2018-11-22T21:02:16.872Z,3.30
2018-11-22T21:05:21.393Z,3.40
2018-11-22T21:08:25.568Z,3.10
2018-11-22T21:11:29.796Z,3.30
2018-11-22T21:14:35.399Z,3.20
2018-11-22T21:17:39.160Z,3.40
2018-11-22T21:20:42.797Z,3.60
2018-11-22T21:23:46.306Z,3.00
2018-11-22T21:26:49.842Z,3.70
2018-11-22T21:29:53.438Z,2.90
2018-11-22T21:32:57.515Z,3.20
2018-11-22T21:36:01.031Z,3.10
2018-11-22T21:39:08.087Z,3.10
2018-11-22T21:42:11.228Z,3.60
2018-11-22T21:48:42.952Z,3.70
2018-11-22T21:51:47.817Z,3.20
2018-11-22T21:54:51.329Z,3.60
2018-11-22T21:57:58.365Z,3.70
2018-11-22T22:01:02.085Z,3.20
2018-11-22T22:04:05.893Z,3.70
2018-11-22T22:07:09.311Z,3.50
2018-11-22T22:10:12.911Z,3.30
2018-11-22T22:13:16.413Z,2.90
2018-11-22T22:16:20.821Z,3.30
2018-11-22T22:19:24.986Z,3.50
2018-11-22T22:22:29.875Z,2.90
2018-11-22T22:25:33.655Z,2.90
2018-11-22T22:28:37.217Z,3.10
2018-11-22T22:31:40.526Z,3.10
2018-11-22T22:34:43.574Z,2.60
2018-11-22T22:37:46.637Z,2.90
2018-11-22T22:40:49.991Z,3.30
2018-11-22T22:43:52.991Z,3.30
2018-11-22T22:46:55.983Z,2.60
2018-11-22T22:49:58.995Z,2.60
2018-11-22T22:53:02.083Z,3.10
2018-11-22T22:56:06.715Z,3.10
2018-11-22T22:59:09.798Z,3.10
2018-11-22T23:02:12.811Z,2.80
2018-11-22T23:05:15.882Z,3.10
2018-11-22T23:08:19.342Z,2.90
2018-11-22T23:11:22.907Z,2.50
2018-11-22T23:14:26.134Z,2.80
2018-11-22T23:17:29.144Z,2.80
2018-11-22T23:20:33.561Z,2.20
2018-11-22T23:23:36.622Z,2.90
2018-11-22T23:26:39.664Z,2.90
2018-11-22T23:29:42.787Z,2.60
2018-11-22T23:32:46.931Z,2.90
2018-11-22T23:35:49.958Z,3.10
2018-11-22T23:38:53.014Z,3.10
2018-11-22T23:41:55.975Z,2.70
2018-11-22T23:44:59.014Z,2.70
2018-11-22T23:48:01.970Z,2.80
2018-11-22T23:51:05.028Z,2.30
2018-11-22T23:54:08.063Z,2.50
2018-11-22T23:57:11.050Z,2.70
